Time;durP1;ratioP1;P1;durP2;ratioP2;P2;SDS_P1;SDS_P2;PMS_P1;PMS_P2;Temp;Humidity;BMP_temperature;BMP_pressure;BME280_temperature;BME280_humidity;BME280_pressure;Samples;Min_cycle;Max_cycle;Signal;HPM_P1;HPM_P2
2023/02/01 00:01:29;;;;;;;4.10;3.70;;;5.40;99.90;;;;;;5030297;28;20189;-83
2023/02/01 00:03:54;;;;;;;6.30;4.40;;;5.50;99.90;;;;;;5023490;28;20215;-83
2023/02/01 00:06:20;;;;;;;4.07;3.33;;;5.40;99.90;;;;;;5024801;28;20199;-84
2023/02/01 00:08:46;;;;;;;3.53;3.17;;;5.30;99.90;;;;;;5043971;28;20264;-83
2023/02/01 00:11:12;;;;;;;4.40;3.50;;;5.70;99.90;;;;;;5024228;28;20278;-83
2023/02/01 00:13:40;;;;;;;6.30;3.65;;;5.40;99.90;;;;;;5024411;28;20285;-83
2023/02/01 00:16:19;;;;;;;4.97;3.83;;;5.50;99.90;;;;;;5020115;28;20181;-83
2023/02/01 00:18:46;;;;;;;4.60;3.85;;;5.70;99.90;;;;;;5042867;28;20211;-83
2023/02/01 00:21:16;;;;;;;3.63;3.30;;;5.00;99.90;;;;;;5024224;28;20187;-83
2023/02/01 00:23:42;;;;;;;3.60;3.30;;;5.10;99.90;;;;;;5020530;28;20678;-82
2023/02/01 00:26:15;;;;;;;3.33;3.03;;;5.80;99.90;;;;;;5024775;28;20180;-83
2023/02/01 00:28:41;;;;;;;3.20;2.90;;;5.20;99.90;;;;;;5028709;28;20434;-83
2023/02/01 00:31:06;;;;;;;3.50;3.07;;;5.60;99.90;;;;;;5020827;28;20594;-83
2023/02/01 00:33:33;;;;;;;4.73;3.30;;;5.40;99.90;;;;;;5017896;28;20211;-83
2023/02/01 00:36:01;;;;;;;3.30;3.00;;;5.30;99.90;;;;;;5019585;28;20184;-82
2023/02/01 00:38:27;;;;;;;3.38;3.05;;;5.80;99.90;;;;;;5023682;28;20178;-83
2023/02/01 00:40:53;;;;;;;3.30;2.95;;;5.60;99.90;;;;;;5018936;28;20187;-83
2023/02/01 00:43:19;;;;;;;3.90;2.80;;;5.30;99.90;;;;;;5016890;28;20176;-83
2023/02/01 00:45:46;;;;;;;3.00;2.70;;;5.70;99.90;;;;;;5017021;28;20438;-83
2023/02/01 00:48:11;;;;;;;3.13;2.83;;;5.70;99.90;;;;;;5040436;28;20242;-83
2023/02/01 00:50:42;;;;;;;3.07;2.70;;;5.50;99.90;;;;;;5021750;28;20174;-82
2023/02/01 00:53:09;;;;;;;4.18;2.75;;;5.50;99.90;;;;;;5035697;28;20513;-82
2023/02/01 00:55:35;;;;;;;3.13;2.83;;;6.00;99.90;;;;;;5028498;28;20300;-83
2023/02/01 00:58:00;;;;;;;3.77;3.10;;;5.80;99.90;;;;;;5017757;28;20708;-83
2023/02/01 01:00:26;;;;;;;3.97;3.20;;;5.60;99.90;;;;;;5044217;28;20677;-83
2023/02/01 01:02:51;;;;;;;5.30;2.97;;;5.60;99.90;;;;;;5022838;28;20201;-82
2023/02/01 01:05:17;;;;;;;3.57;3.10;;;5.70;99.90;;;;;;5025975;28;20481;-82
2023/02/01 01:07:43;;;;;;;3.20;2.77;;;5.50;99.90;;;;;;5022361;28;20207;-83
2023/02/01 01:10:08;;;;;;;3.17;2.87;;;6.10;99.90;;;;;;5022325;28;20676;-83
2023/02/01 01:12:34;;;;;;;2.53;2.33;;;5.60;99.90;;;;;;5025182;28;20182;-84
2023/02/01 01:15:00;;;;;;;2.50;2.20;;;6.00;99.90;;;;;;5023707;28;20450;-83
2023/02/01 01:17:25;;;;;;;3.30;2.70;;;6.10;99.90;;;;;;5021157;28;20203;-84
2023/02/01 01:19:51;;;;;;;2.77;2.57;;;6.20;99.90;;;;;;5042757;28;20688;-83
2023/02/01 01:22:17;;;;;;;2.43;2.23;;;6.10;99.90;;;;;;5038446;28;20665;-84
2023/02/01 01:24:43;;;;;;;2.70;2.50;;;5.90;99.90;;;;;;5023402;28;20212;-83
2023/02/01 01:27:08;;;;;;;2.47;2.20;;;6.10;99.90;;;;;;5022904;28;20288;-83
2023/02/01 01:29:34;;;;;;;2.63;2.43;;;5.80;99.90;;;;;;5019801;28;20191;-82
2023/02/01 01:31:59;;;;;;;2.27;2.07;;;5.80;99.90;;;;;;5017852;28;20717;-83
2023/02/01 01:34:25;;;;;;;6.10;2.50;;;5.60;99.90;;;;;;5023396;28;20695;-82
2023/02/01 01:36:50;;;;;;;2.40;2.20;;;5.60;99.90;;;;;;5019525;28;20747;-83
2023/02/01 01:39:16;;;;;;;2.40;2.20;;;5.70;99.90;;;;;;5035727;28;20825;-83
2023/02/01 01:41:41;;;;;;;1.80;1.70;;;5.60;99.90;;;;;;5023142;28;20221;-83
2023/02/01 01:44:46;;;;;;;2.60;2.40;;;5.70;99.90;;;;;;5020418;28;20299;-83
2023/02/01 01:47:12;;;;;;;1.88;1.75;;;5.70;99.90;;;;;;5033523;28;20338;-82
2023/02/01 01:49:38;;;;;;;1.90;1.80;;;5.70;99.90;;;;;;5020608;28;20191;-82
2023/02/01 01:52:04;;;;;;;1.93;1.80;;;5.30;99.90;;;;;;5022860;28;20185;-83
2023/02/01 01:54:38;;;;;;;1.85;1.73;;;5.80;99.90;;;;;;5023045;28;20446;-83
2023/02/01 01:57:11;;;;;;;2.00;1.70;;;5.80;99.90;;;;;;5017932;28;20301;-83
2023/02/01 01:59:39;;;;;;;2.80;2.60;;;5.70;99.90;;;;;;5025019;28;20182;-82
2023/02/01 02:02:05;;;;;;;2.50;2.30;;;6.10;99.90;;;;;;5019539;28;20425;-82
2023/02/01 02:04:33;;;;;;;2.53;2.30;;;5.80;99.90;;;;;;5026065;28;20231;-83
2023/02/01 02:07:28;;;;;;;1.95;1.85;;;5.70;99.90;;;;;;5044436;28;20233;-83
2023/02/01 02:09:54;;;;;;;2.17;1.98;;;5.70;99.90;;;;;;5029629;28;20280;-83
2023/02/01 02:12:19;;;;;;;2.30;2.10;;;5.90;99.90;;;;;;5040321;28;20193;-83
2023/02/01 02:14:45;;;;;;;2.87;2.40;;;5.80;99.90;;;;;;5026379;28;20189;-84
2023/02/01 02:17:20;;;;;;;2.50;2.30;;;6.20;99.90;;;;;;5028898;28;20220;-84
2023/02/01 02:20:20;;;;;;;2.15;1.95;;;5.90;99.90;;;;;;5039910;28;20451;-83
2023/02/01 02:22:58;;;;;;;2.03;1.92;;;5.70;99.90;;;;;;5024571;28;20187;-85
2023/02/01 02:25:48;;;;;;;2.10;2.00;;;6.00;99.90;;;;;;5047856;28;20209;-82
2023/02/01 02:28:30;;;;;;;3.50;2.25;;;5.70;99.90;;;;;;5058910;28;20279;-84
2023/02/01 02:31:22;;;;;;;2.55;2.35;;;6.40;99.90;;;;;;5037496;28;20185;-84
2023/02/01 02:34:03;;;;;;;2.42;2.22;;;5.80;99.90;;;;;;4997047;28;20205;-83
2023/02/01 02:36:49;;;;;;;2.70;2.50;;;5.70;99.90;;;;;;5025100;28;20205;-82
2023/02/01 02:39:53;;;;;;;2.63;2.42;;;6.10;99.90;;;;;;5019147;28;20213;-83
2023/02/01 02:48:12;;;;;;;2.40;2.15;;;5.40;99.90;;;;;;5043614;28;20637;-84
2023/02/01 03:05:05;;;;;;;3.08;2.85;;;5.30;99.90;;;;;;5047958;28;20754;-85
2023/02/01 03:07:57;;;;;;;3.00;2.80;;;5.90;99.90;;;;;;5041940;28;20217;-84
2023/02/01 03:10:41;;;;;;;2.70;2.50;;;5.50;99.90;;;;;;5030916;28;20669;-82
2023/02/01 03:13:15;;;;;;;3.15;2.22;;;5.70;99.90;;;;;;5021816;28;20179;-83
2023/02/01 03:15:59;;;;;;;3.25;2.95;;;5.80;99.90;;;;;;5027814;28;20176;-83
2023/02/01 03:19:05;;;;;;;2.85;2.60;;;5.80;99.90;;;;;;5030242;28;20204;-83
2023/02/01 03:21:57;;;;;;;2.88;2.67;;;5.90;99.90;;;;;;5015784;28;20218;-82
2023/02/01 03:24:38;;;;;;;2.30;2.10;;;5.80;99.90;;;;;;5040489;28;20261;-83
2023/02/01 03:27:16;;;;;;;2.92;2.72;;;5.50;99.90;;;;;;5023513;28;20215;-83
2023/02/01 03:29:59;;;;;;;3.25;2.35;;;5.80;99.90;;;;;;5031219;28;20193;-82
2023/02/01 03:32:25;;;;;;;2.72;2.53;;;5.70;99.90;;;;;;5021498;28;20951;-85
2023/02/01 03:34:53;;;;;;;2.57;2.37;;;5.70;99.90;;;;;;5024666;28;20224;-81
2023/02/01 03:37:26;;;;;;;3.22;2.80;;;5.80;99.90;;;;;;5037427;28;20228;-82
2023/02/01 03:40:07;;;;;;;2.92;2.70;;;5.80;99.90;;;;;;5038871;28;20790;-81
2023/02/01 03:42:43;;;;;;;2.75;2.45;;;5.80;99.90;;;;;;5029305;28;20650;-81
2023/02/01 03:45:13;;;;;;;2.95;2.63;;;5.80;99.90;;;;;;5029602;28;20204;-82
2023/02/01 03:47:43;;;;;;;3.00;2.70;;;5.80;99.90;;;;;;5024764;28;20214;-84
2023/02/01 03:50:11;;;;;;;3.22;2.92;;;5.20;99.90;;;;;;5042326;28;20191;-84
2023/02/01 03:52:44;;;;;;;3.03;2.80;;;5.80;99.90;;;;;;5044075;28;20182;-83
2023/02/01 03:55:12;;;;;;;2.92;2.63;;;5.60;99.90;;;;;;5023367;28;20189;-84
2023/02/01 03:57:51;;;;;;;3.75;2.90;;;6.10;99.90;;;;;;5033473;28;20753;-82
2023/02/01 04:00:23;;;;;;;2.80;2.58;;;5.90;99.90;;;;;;5020215;28;20182;-81
2023/02/01 04:02:49;;;;;;;3.97;3.00;;;5.50;99.90;;;;;;5019533;28;20251;-82
2023/02/01 04:05:15;;;;;;;3.22;2.92;;;6.10;99.90;;;;;;5019227;28;20208;-81
2023/02/01 04:07:41;;;;;;;2.67;2.47;;;6.00;99.90;;;;;;5023772;28;20216;-82
2023/02/01 04:10:08;;;;;;;3.08;2.85;;;6.30;99.90;;;;;;5033253;28;20198;-82
2023/02/01 04:12:33;;;;;;;2.55;2.35;;;5.90;99.90;;;;;;5023938;28;20192;-83
2023/02/01 04:14:59;;;;;;;2.60;2.40;;;5.80;99.90;;;;;;5020732;28;20181;-82
2023/02/01 04:17:24;;;;;;;2.70;2.50;;;5.90;99.90;;;;;;5043782;28;20625;-83
2023/02/01 04:19:50;;;;;;;2.60;2.40;;;5.70;99.90;;;;;;5023882;28;20565;-83
2023/02/01 04:22:15;;;;;;;2.63;2.43;;;5.90;99.90;;;;;;5019806;28;20186;-83
2023/02/01 04:24:41;;;;;;;3.30;3.00;;;6.00;99.90;;;;;;5024940;28;20287;-83
2023/02/01 04:27:06;;;;;;;3.77;3.00;;;5.90;99.90;;;;;;5028184;28;20197;-83
2023/02/01 04:29:32;;;;;;;2.90;2.57;;;6.20;99.90;;;;;;5040484;28;20208;-84
2023/02/01 04:31:57;;;;;;;3.00;2.77;;;5.90;99.90;;;;;;5025055;28;20181;-83
2023/02/01 04:34:24;;;;;;;4.33;3.47;;;6.00;99.90;;;;;;5040311;28;20669;-84
2023/02/01 04:36:50;;;;;;;2.75;2.55;;;6.30;99.90;;;;;;5028674;28;20224;-83
2023/02/01 04:39:16;;;;;;;3.17;2.90;;;6.00;99.90;;;;;;5027827;28;20185;-83
2023/02/01 04:41:41;;;;;;;3.20;2.60;;;6.00;99.90;;;;;;5018964;28;20208;-83
2023/02/01 04:44:14;;;;;;;3.07;2.67;;;5.90;99.90;;;;;;5021083;28;20201;-82
2023/02/01 04:46:40;;;;;;;3.35;3.05;;;6.20;99.90;;;;;;5016729;28;20199;-83
2023/02/01 04:49:06;;;;;;;2.90;2.70;;;6.00;99.90;;;;;;5043749;28;20181;-83
2023/02/01 04:51:32;;;;;;;3.07;2.47;;;6.10;99.90;;;;;;5027703;28;20227;-82
2023/02/01 04:53:57;;;;;;;2.53;2.28;;;6.40;99.90;;;;;;5040989;28;20203;-83
2023/02/01 04:56:23;;;;;;;3.10;2.80;;;6.10;99.90;;;;;;5043546;28;20209;-82
2023/02/01 04:58:49;;;;;;;3.03;2.37;;;6.10;99.90;;;;;;5043166;28;20718;-82
2023/02/01 05:01:14;;;;;;;2.97;2.67;;;6.00;99.90;;;;;;5035975;28;20201;-82
2023/02/01 05:03:40;;;;;;;2.97;2.70;;;6.00;99.90;;;;;;5036946;28;20548;-83
2023/02/01 05:06:05;;;;;;;3.00;2.70;;;6.40;99.90;;;;;;5029559;28;20210;-82
2023/02/01 05:08:31;;;;;;;2.80;2.53;;;6.40;99.90;;;;;;5023099;28;20219;-82
2023/02/01 05:10:58;;;;;;;2.17;2.05;;;6.60;99.90;;;;;;5022057;28;20193;-82
2023/02/01 05:16:08;;;;;;;2.28;2.13;;;6.10;99.90;;;;;;5044830;28;20184;-82
2023/02/01 05:18:34;;;;;;;2.50;2.10;;;6.50;99.90;;;;;;5021569;28;20182;-82
2023/02/01 05:20:59;;;;;;;2.97;2.77;;;6.20;99.90;;;;;;5027845;28;20177;-83
2023/02/01 05:23:25;;;;;;;4.10;2.97;;;5.90;99.90;;;;;;5021337;28;20705;-82
2023/02/01 05:25:50;;;;;;;2.67;2.17;;;6.70;99.90;;;;;;5027358;28;20672;-82
2023/02/01 05:28:16;;;;;;;2.83;2.40;;;6.40;99.90;;;;;;5019065;28;20233;-82
2023/02/01 05:30:41;;;;;;;2.70;2.47;;;6.40;99.90;;;;;;5023961;28;20668;-79
2023/02/01 05:33:07;;;;;;;2.13;2.03;;;6.40;99.90;;;;;;5039999;28;20185;-83
2023/02/01 05:35:32;;;;;;;2.67;2.47;;;6.40;99.90;;;;;;5028109;28;20194;-85
2023/02/01 05:37:58;;;;;;;2.63;2.23;;;6.80;99.90;;;;;;5026259;28;20197;-83
2023/02/01 05:40:23;;;;;;;1.87;1.77;;;6.60;99.90;;;;;;5022004;28;20280;-83
2023/02/01 05:42:49;;;;;;;2.10;1.90;;;6.30;99.90;;;;;;5029377;28;20177;-85
2023/02/01 05:45:14;;;;;;;2.53;2.30;;;6.80;99.90;;;;;;5027429;28;20206;-86
2023/02/01 05:47:40;;;;;;;2.40;2.20;;;6.70;99.90;;;;;;5014269;28;21306;-84
2023/02/01 05:50:06;;;;;;;3.67;2.87;;;6.30;99.90;;;;;;5029379;28;20231;-85
2023/02/01 05:52:32;;;;;;;2.72;2.50;;;6.20;99.90;;;;;;5027808;28;20184;-83
2023/02/01 05:54:57;;;;;;;2.50;2.30;;;6.30;99.90;;;;;;5032658;28;20181;-83
2023/02/01 05:57:23;;;;;;;3.13;2.30;;;6.30;99.90;;;;;;5028623;28;20205;-82
2023/02/01 05:59:49;;;;;;;2.43;2.23;;;6.10;99.90;;;;;;5031851;28;20177;-84
2023/02/01 06:02:16;;;;;;;2.90;2.70;;;6.30;99.90;;;;;;5033957;28;20186;-86
2023/02/01 06:04:41;;;;;;;2.22;1.92;;;6.40;99.90;;;;;;5048306;28;20216;-87
2023/02/01 06:07:10;;;;;;;2.40;2.20;;;5.60;99.90;;;;;;5024980;28;20201;-84
2023/02/01 06:09:36;;;;;;;2.60;2.40;;;5.80;99.90;;;;;;5030273;28;20174;-81
2023/02/01 06:12:03;;;;;;;2.42;2.22;;;5.90;99.90;;;;;;5040015;28;20191;-84
2023/02/01 06:14:29;;;;;;;2.67;2.45;;;5.90;99.90;;;;;;5032861;28;20185;-85
2023/02/01 06:16:55;;;;;;;2.30;2.10;;;6.30;99.90;;;;;;5043544;28;20603;-85
2023/02/01 06:19:22;;;;;;;5.32;2.40;;;6.10;99.90;;;;;;5030860;28;20205;-85
2023/02/01 06:21:47;;;;;;;2.80;2.05;;;5.80;99.90;;;;;;5026874;28;20263;-82
2023/02/01 06:24:13;;;;;;;2.20;2.00;;;6.10;99.90;;;;;;5030047;28;20215;-90
2023/02/01 06:26:39;;;;;;;2.30;2.10;;;6.00;99.90;;;;;;5038989;28;20213;-89
2023/02/01 06:29:11;;;;;;;2.10;2.00;;;5.90;99.90;;;;;;5032860;28;20439;-90
2023/02/01 06:31:37;;;;;;;2.40;2.20;;;5.80;99.90;;;;;;5027333;28;20177;-89
2023/02/01 06:34:03;;;;;;;2.50;2.30;;;6.30;99.90;;;;;;5026634;28;20277;-89
2023/02/01 06:36:29;;;;;;;4.80;2.80;;;5.90;99.90;;;;;;5029297;28;20256;-85
2023/02/01 06:38:56;;;;;;;3.92;3.20;;;5.40;99.90;;;;;;5026523;28;20181;-87
2023/02/01 06:41:22;;;;;;;3.42;3.08;;;5.90;99.90;;;;;;5030355;28;20287;-89
2023/02/01 06:43:48;;;;;;;3.30;2.95;;;5.80;99.90;;;;;;5025299;28;20185;-89
2023/02/01 06:46:14;;;;;;;7.20;6.23;;;6.30;99.90;;;;;;5028523;28;20674;-84
2023/02/01 06:48:39;;;;;;;3.10;2.80;;;6.10;99.90;;;;;;5027861;28;20627;-84
2023/02/01 06:51:05;;;;;;;6.00;2.73;;;6.00;99.90;;;;;;5026236;28;20968;-85
2023/02/01 06:53:31;;;;;;;3.00;2.70;;;6.00;99.90;;;;;;5026541;28;20498;-85
2023/02/01 06:55:58;;;;;;;3.40;3.10;;;6.10;99.90;;;;;;5034368;28;20225;-86
2023/02/01 06:58:27;;;;;;;3.35;2.55;;;6.10;99.90;;;;;;5021869;28;20205;-89
2023/02/01 07:00:53;;;;;;;3.20;2.13;;;6.50;99.90;;;;;;5033010;28;20190;-81
2023/02/01 07:03:19;;;;;;;2.35;2.15;;;6.10;99.90;;;;;;5028815;28;20197;-81
2023/02/01 07:05:44;;;;;;;4.07;3.23;;;6.70;99.90;;;;;;5029866;28;20237;-83
2023/02/01 07:08:10;;;;;;;3.17;2.90;;;6.80;99.90;;;;;;5042465;28;20353;-83
2023/02/01 07:10:35;;;;;;;4.53;2.90;;;6.40;99.90;;;;;;5024528;28;20666;-81
2023/02/01 07:13:01;;;;;;;3.47;2.60;;;6.30;99.90;;;;;;5032359;28;20265;-86
2023/02/01 07:15:26;;;;;;;6.63;2.60;;;6.60;99.90;;;;;;5029811;28;20268;-82
2023/02/01 07:17:54;;;;;;;2.73;2.53;;;6.30;99.90;;;;;;5028439;28;20222;-81
2023/02/01 07:20:20;;;;;;;3.28;2.83;;;6.70;99.90;;;;;;5042938;28;20193;-83
2023/02/01 07:22:46;;;;;;;3.70;2.30;;;6.70;99.90;;;;;;5023992;28;20679;-84
2023/02/01 07:25:11;;;;;;;2.90;2.70;;;6.90;99.90;;;;;;5032653;28;20679;-83
2023/02/01 07:27:37;;;;;;;2.90;2.60;;;6.70;99.90;;;;;;5025886;28;20727;-86
2023/02/01 07:30:04;;;;;;;4.88;2.60;;;7.10;99.90;;;;;;5027826;28;20173;-86
2023/02/01 07:32:30;;;;;;;6.78;3.22;;;6.60;99.90;;;;;;5024703;28;20185;-85
2023/02/01 07:34:57;;;;;;;4.40;3.30;;;6.80;99.90;;;;;;5022444;28;20550;-83
2023/02/01 07:37:23;;;;;;;3.30;3.00;;;6.70;99.90;;;;;;5042346;28;20467;-82
2023/02/01 07:39:50;;;;;;;2.78;2.13;;;7.30;99.90;;;;;;5038267;28;20196;-83
2023/02/01 07:42:15;;;;;;;3.30;3.00;;;7.20;99.90;;;;;;5027708;28;20186;-85
2023/02/01 07:44:41;;;;;;;3.47;3.17;;;7.10;99.90;;;;;;5021648;28;20214;-86
2023/02/01 07:47:06;;;;;;;5.07;3.10;;;6.40;99.90;;;;;;5025167;28;20609;-86
2023/02/01 07:49:32;;;;;;;3.23;2.93;;;7.00;99.90;;;;;;5028017;28;20190;-86
2023/02/01 07:51:57;;;;;;;3.70;3.10;;;6.70;99.90;;;;;;5022082;28;20251;-88
2023/02/01 07:54:23;;;;;;;3.27;2.97;;;7.00;99.90;;;;;;5024385;28;20270;-88
2023/02/01 07:56:48;;;;;;;3.10;2.70;;;6.40;99.90;;;;;;5028729;28;20295;-82
2023/02/01 07:59:15;;;;;;;5.23;4.47;;;6.90;99.90;;;;;;5038603;28;20304;-85
2023/02/01 08:01:41;;;;;;;3.45;2.90;;;7.20;99.90;;;;;;5032905;28;20185;-85
2023/02/01 08:04:11;;;;;;;3.00;2.57;;;6.90;99.90;;;;;;5031829;28;20229;-86
2023/02/01 08:06:37;;;;;;;3.55;2.80;;;6.80;99.90;;;;;;5022640;28;20361;-86
2023/02/01 08:09:04;;;;;;;2.93;2.63;;;6.90;99.90;;;;;;5020204;28;20373;-88
2023/02/01 08:11:30;;;;;;;4.40;2.42;;;7.40;99.90;;;;;;5029658;28;20178;-89
2023/02/01 08:13:55;;;;;;;4.28;2.47;;;6.90;99.90;;;;;;5026756;28;20260;-88
2023/02/01 08:16:23;;;;;;;3.60;2.60;;;7.40;99.90;;;;;;5022008;28;20237;-86
2023/02/01 08:18:49;;;;;;;3.80;2.45;;;7.10;99.90;;;;;;5031465;28;20700;-85
2023/02/01 08:21:17;;;;;;;3.80;2.60;;;7.10;99.90;;;;;;5024583;28;20276;-87
2023/02/01 08:23:44;;;;;;;4.32;3.63;;;6.90;99.90;;;;;;5032721;28;20510;-84
2023/02/01 08:26:18;;;;;;;3.00;2.60;;;6.60;99.90;;;;;;5020965;28;20173;-86
2023/02/01 08:28:51;;;;;;;5.60;2.60;;;6.60;99.90;;;;;;5029425;28;20185;-88
2023/02/01 08:31:19;;;;;;;3.28;2.60;;;7.20;99.90;;;;;;5035206;28;20212;-84
2023/02/01 08:33:49;;;;;;;2.65;2.45;;;7.50;99.90;;;;;;5030507;28;20232;-86
2023/02/01 08:36:15;;;;;;;3.67;2.35;;;7.50;99.90;;;;;;5025435;28;20212;-85
2023/02/01 08:38:41;;;;;;;3.17;2.33;;;7.50;99.90;;;;;;5027310;28;20224;-84
2023/02/01 08:41:13;;;;;;;2.67;2.40;;;7.20;99.90;;;;;;5024606;28;20999;-87
2023/02/01 08:43:39;;;;;;;3.95;2.55;;;7.20;99.90;;;;;;5031766;28;20543;-84
2023/02/01 08:46:05;;;;;;;2.65;2.20;;;7.70;99.90;;;;;;5032543;28;20177;-85
2023/02/01 08:48:31;;;;;;;6.40;4.72;;;7.30;99.90;;;;;;5025531;28;20201;-85
2023/02/01 08:51:00;;;;;;;3.42;3.13;;;7.00;99.90;;;;;;5031963;28;20175;-86
2023/02/01 08:53:25;;;;;;;2.75;2.45;;;7.70;99.90;;;;;;5026900;28;20208;-85
2023/02/01 08:55:51;;;;;;;4.30;2.67;;;8.00;99.90;;;;;;5033869;28;20215;-86
2023/02/01 08:58:16;;;;;;;2.97;2.67;;;7.10;99.90;;;;;;5024612;28;20277;-85
2023/02/01 09:00:44;;;;;;;3.93;3.00;;;8.20;99.90;;;;;;5027310;28;20269;-85
2023/02/01 09:03:11;;;;;;;6.35;2.80;;;7.70;99.90;;;;;;5033805;28;20260;-85
2023/02/01 09:05:37;;;;;;;2.58;2.22;;;7.50;99.90;;;;;;5029697;28;20198;-86
2023/02/01 09:08:02;;;;;;;5.63;2.23;;;7.70;99.90;;;;;;5026664;28;20209;-85
2023/02/01 09:10:28;;;;;;;3.67;2.40;;;7.70;99.90;;;;;;5032711;28;20407;-91
2023/02/01 09:12:53;;;;;;;3.37;2.80;;;7.70;99.90;;;;;;5041102;28;20549;-91
2023/02/01 09:15:19;;;;;;;4.73;3.10;;;7.60;99.90;;;;;;5057480;28;20188;-91
2023/02/01 09:17:45;;;;;;;4.40;2.47;;;7.70;99.90;;;;;;5038891;28;20296;-90
2023/02/01 09:20:11;;;;;;;5.38;2.78;;;8.10;99.90;;;;;;5035869;28;20227;-90
2023/02/01 09:22:37;;;;;;;6.45;2.92;;;7.70;99.90;;;;;;5047601;28;20204;-90
2023/02/01 09:25:03;;;;;;;4.40;2.70;;;7.90;99.90;;;;;;5047679;28;20205;-90
2023/02/01 09:27:29;;;;;;;4.65;2.75;;;7.70;99.90;;;;;;5048700;28;20508;-91
2023/02/01 09:29:54;;;;;;;5.10;2.60;;;7.30;99.90;;;;;;5056310;28;20649;-90
2023/02/01 09:34:58;;;;;;;5.53;2.92;;;7.60;99.90;;;;;;5025079;28;20733;-66
2023/02/01 09:37:24;;;;;;;3.83;2.80;;;7.80;99.90;;;;;;4999645;28;20206;-67
2023/02/01 09:39:49;;;;;;;7.83;5.00;;;7.90;99.90;;;;;;5000535;28;20182;-67
2023/02/01 09:42:41;;;;;;;8.50;5.40;;;7.60;99.90;;;;;;5001601;28;20182;-69
2023/02/01 09:45:21;;;;;;;3.60;2.40;;;7.90;99.90;;;;;;5021278;28;20225;-69
2023/02/01 09:47:53;;;;;;;3.85;2.47;;;8.40;99.90;;;;;;5000123;28;20644;-69
2023/02/01 09:50:29;;;;;;;6.65;3.15;;;8.70;99.90;;;;;;5017760;28;20261;-70
2023/02/01 09:53:06;;;;;;;4.57;2.85;;;8.70;99.90;;;;;;5020261;28;20204;-70
2023/02/01 09:55:41;;;;;;;4.68;2.85;;;8.60;99.90;;;;;;5015936;28;20207;-65
2023/02/01 09:58:25;;;;;;;5.10;2.60;;;8.60;99.90;;;;;;5000778;28;20273;-69
2023/02/01 10:00:55;;;;;;;2.88;2.15;;;8.90;99.90;;;;;;5019015;28;20269;-70
2023/02/01 10:03:23;;;;;;;8.77;5.70;;;8.60;99.90;;;;;;5001756;28;20576;-66
2023/02/01 10:06:10;;;;;;;4.88;3.50;;;9.00;99.90;;;;;;5016456;28;20294;-65
2023/02/01 10:09:12;;;;;;;7.43;3.65;;;8.70;99.90;;;;;;5018909;28;20497;-66
2023/02/01 10:11:49;;;;;;;4.80;2.78;;;8.80;99.90;;;;;;5004967;28;20185;-66
2023/02/01 10:14:18;;;;;;;7.82;3.03;;;8.80;99.90;;;;;;5014691;28;20553;-66
2023/02/01 10:17:03;;;;;;;5.70;2.72;;;8.60;99.90;;;;;;5017723;28;20202;-67
2023/02/01 10:19:29;;;;;;;5.15;2.13;;;8.60;99.90;;;;;;5020582;28;20236;-67
2023/02/01 10:22:06;;;;;;;6.33;2.77;;;8.70;99.90;;;;;;5002955;28;20182;-66
2023/02/01 10:24:38;;;;;;;11.07;4.40;;;8.60;99.60;;;;;;5027291;28;20293;-68
2023/02/01 10:27:24;;;;;;;5.72;2.20;;;8.80;99.90;;;;;;5000638;28;20212;-68
2023/02/01 10:29:59;;;;;;;8.02;2.58;;;8.90;99.90;;;;;;5021924;28;20232;-68
2023/02/01 10:32:32;;;;;;;6.55;3.70;;;9.10;99.90;;;;;;5017129;28;20187;-70
2023/02/01 10:35:21;;;;;;;6.57;3.13;;;8.80;99.50;;;;;;5016180;28;20199;-67
2023/02/01 10:37:47;;;;;;;4.30;2.45;;;9.00;99.10;;;;;;5019039;28;20199;-68
2023/02/01 10:40:32;;;;;;;4.50;3.10;;;9.00;98.90;;;;;;5001521;28;20281;-68
2023/02/01 10:43:02;;;;;;;5.78;3.05;;;9.30;97.90;;;;;;5019892;28;20190;-68
2023/02/01 10:45:30;;;;;;;3.47;2.20;;;9.20;98.40;;;;;;5001664;28;20214;-68
2023/02/01 10:47:58;;;;;;;5.55;3.13;;;9.10;98.40;;;;;;5019462;28;20185;-68
2023/02/01 10:50:59;;;;;;;5.00;2.45;;;9.20;98.30;;;;;;5022855;28;20672;-68
2023/02/01 10:53:39;;;;;;;8.65;3.10;;;9.30;98.20;;;;;;5007748;28;20743;-68
2023/02/01 10:56:09;;;;;;;6.70;3.25;;;8.90;98.00;;;;;;5018934;28;20226;-68
2023/02/01 10:58:37;;;;;;;5.88;2.65;;;8.90;97.70;;;;;;5020350;28;20182;-67
2023/02/01 11:01:15;;;;;;;10.55;2.80;;;9.00;97.10;;;;;;5022192;28;20182;-67
2023/02/01 11:03:42;;;;;;;6.82;2.83;;;8.90;97.40;;;;;;5003744;28;20318;-67
2023/02/01 11:06:25;;;;;;;15.13;3.10;;;9.30;97.40;;;;;;5017630;28;20209;-67
2023/02/01 11:08:58;;;;;;;8.25;1.95;;;9.00;97.10;;;;;;5025263;28;20262;-67
2023/02/01 11:11:25;;;;;;;6.82;2.60;;;8.80;97.10;;;;;;4999391;28;20183;-65
2023/02/01 11:13:59;;;;;;;5.03;2.92;;;8.80;97.20;;;;;;5019358;28;20573;-67
2023/02/01 11:16:36;;;;;;;11.77;3.30;;;8.90;97.00;;;;;;5020923;28;20220;-68
2023/02/01 11:19:01;;;;;;;5.88;2.67;;;8.80;97.10;;;;;;5021550;28;20538;-65
2023/02/01 11:21:27;;;;;;;6.73;2.60;;;8.90;96.90;;;;;;5018513;28;20217;-66
2023/02/01 11:23:53;;;;;;;8.43;3.17;;;8.70;96.70;;;;;;5001581;28;20828;-66
2023/02/01 11:26:27;;;;;;;13.32;3.38;;;8.90;97.00;;;;;;5014183;28;21005;-65
2023/02/01 11:29:10;;;;;;;9.43;3.20;;;8.90;96.70;;;;;;5019036;28;20531;-66
2023/02/01 11:31:37;;;;;;;12.73;3.65;;;8.70;96.30;;;;;;5020469;28;20188;-67
2023/02/01 11:34:22;;;;;;;2.95;2.10;;;9.00;96.80;;;;;;5016103;28;20206;-65
2023/02/01 11:36:49;;;;;;;8.43;2.58;;;8.90;96.80;;;;;;5013321;28;20269;-66
2023/02/01 11:39:15;;;;;;;8.80;2.47;;;9.00;96.50;;;;;;4996570;28;20219;-66
2023/02/01 11:41:43;;;;;;;9.30;2.33;;;9.00;96.30;;;;;;5016693;28;20650;-65
2023/02/01 11:44:30;;;;;;;5.68;3.17;;;9.00;95.90;;;;;;5019926;28;20214;-65
2023/02/01 11:47:12;;;;;;;9.80;3.25;;;8.80;95.80;;;;;;5018913;28;20198;-65
2023/02/01 11:49:37;;;;;;;6.15;2.50;;;8.80;96.00;;;;;;5019574;28;20209;-66
2023/02/01 11:52:36;;;;;;;6.73;2.43;;;8.80;95.80;;;;;;5000263;28;20186;-66
2023/02/01 11:55:29;;;;;;;3.58;2.35;;;9.00;96.00;;;;;;5012950;28;20187;-66
2023/02/01 11:58:04;;;;;;;3.90;2.20;;;9.10;95.70;;;;;;5015504;28;20187;-66
2023/02/01 12:00:51;;;;;;;9.07;2.53;;;8.90;95.30;;;;;;5019205;28;20217;-66
2023/02/01 12:03:56;;;;;;;9.10;2.97;;;9.20;95.10;;;;;;5018517;28;20187;-66
2023/02/01 12:06:54;;;;;;;8.27;2.33;;;9.20;94.80;;;;;;5011596;28;20624;-66
2023/02/01 12:09:38;;;;;;;8.90;2.75;;;9.30;95.00;;;;;;5012513;28;20203;-66
2023/02/01 12:12:16;;;;;;;5.97;2.35;;;9.20;94.90;;;;;;5018448;28;20183;-66
2023/02/01 12:14:41;;;;;;;7.28;2.75;;;9.40;94.90;;;;;;5014039;28;20188;-65
2023/02/01 12:17:13;;;;;;;11.20;2.50;;;9.00;94.50;;;;;;5011043;28;20202;-66
2023/02/01 12:19:47;;;;;;;6.22;2.58;;;8.90;94.60;;;;;;5003421;28;20187;-65
2023/02/01 12:22:36;;;;;;;9.60;2.90;;;9.00;94.30;;;;;;5013284;28;20190;-64
2023/02/01 12:25:35;;;;;;;7.43;2.40;;;8.90;94.40;;;;;;5012428;28;20828;-66
2023/02/01 12:28:45;;;;;;;6.13;2.58;;;9.00;95.00;;;;;;5017702;28;20179;-68
2023/02/01 12:31:12;;;;;;;4.88;1.85;;;8.90;95.00;;;;;;4999481;28;20208;-67
2023/02/01 12:33:50;;;;;;;8.02;2.25;;;8.80;94.40;;;;;;5019239;28;20278;-67
2023/02/01 12:36:27;;;;;;;6.13;2.95;;;8.90;94.70;;;;;;5026714;28;20245;-66
2023/02/01 12:39:14;;;;;;;7.85;2.63;;;8.80;94.90;;;;;;5003150;28;20183;-65
2023/02/01 12:41:45;;;;;;;7.07;2.50;;;8.50;95.10;;;;;;5024412;28;20196;-66
2023/02/01 12:44:33;;;;;;;5.53;3.10;;;8.60;95.30;;;;;;5015591;28;20293;-65
2023/02/01 12:47:11;;;;;;;16.88;3.28;;;8.30;95.50;;;;;;5012266;28;20284;-66
2023/02/01 12:49:46;;;;;;;7.28;3.30;;;8.20;95.90;;;;;;5019510;28;20205;-65
2023/02/01 12:52:25;;;;;;;5.20;1.80;;;8.30;96.10;;;;;;5019910;28;20186;-65
2023/02/01 12:55:01;;;;;;;5.93;2.40;;;8.20;96.40;;;;;;5004308;28;20177;-65
2023/02/01 12:57:39;;;;;;;9.23;3.08;;;8.20;96.40;;;;;;5019128;28;20194;-66
2023/02/01 13:00:17;;;;;;;5.78;2.38;;;8.30;96.70;;;;;;5019481;28;20310;-66
2023/02/01 13:02:50;;;;;;;5.57;1.92;;;8.30;96.80;;;;;;5019275;28;20190;-65
2023/02/01 13:05:33;;;;;;;9.98;3.25;;;8.20;96.40;;;;;;5015030;28;20214;-65
2023/02/01 13:08:08;;;;;;;6.63;2.70;;;8.30;96.80;;;;;;5016558;28;20297;-64
2023/02/01 13:10:50;;;;;;;8.25;2.50;;;8.20;96.80;;;;;;5023367;28;20189;-66
2023/02/01 13:13:40;;;;;;;6.75;2.65;;;8.20;97.00;;;;;;5014144;28;20253;-67
2023/02/01 13:16:17;;;;;;;8.73;2.70;;;8.10;97.00;;;;;;5014289;28;20637;-67
2023/02/01 13:18:48;;;;;;;7.75;3.00;;;8.50;97.10;;;;;;5018543;28;20195;-68
2023/02/01 13:21:19;;;;;;;7.78;2.65;;;8.40;97.30;;;;;;5016224;28;20205;-67
2023/02/01 13:23:47;;;;;;;4.80;2.80;;;8.50;97.00;;;;;;5017143;28;20187;-67
2023/02/01 13:26:13;;;;;;;9.38;2.90;;;8.30;96.60;;;;;;5019690;28;20209;-67
2023/02/01 13:28:52;;;;;;;6.87;2.23;;;8.10;96.50;;;;;;5013141;28;20182;-65
2023/02/01 13:31:40;;;;;;;3.50;1.90;;;8.00;96.60;;;;;;5018227;28;20224;-65
2023/02/01 13:34:33;;;;;;;6.82;2.28;;;8.10;96.80;;;;;;5013434;28;20205;-67
2023/02/01 13:37:20;;;;;;;14.32;3.10;;;8.10;96.80;;;;;;5015212;28;20205;-67
2023/02/01 13:40:14;;;;;;;8.95;2.55;;;8.00;96.70;;;;;;5015059;28;20694;-65
2023/02/01 13:42:50;;;;;;;8.35;2.88;;;8.20;96.90;;;;;;4997736;28;20309;-65
2023/02/01 13:45:21;;;;;;;6.90;3.08;;;8.10;97.20;;;;;;5020101;28;20216;-66